sensor_id;sensor_type;location;lat;lon;timestamp;pressure;altitude;pressure_sealevel;temperature;humidity
22572;BME280;11452;53.368;14.658;2023-05-01T14:06:48;100952.89;;;22.59;26.72
22572;BME280;11452;53.368;14.658;2023-05-01T14:11:55;100949.84;;;21.59;28.36
22572;BME280;11452;53.368;14.658;2023-05-01T14:17:02;100941.19;;;21.46;28.99
22572;BME280;11452;53.368;14.658;2023-05-01T14:22:08;100938.30;;;21.34;28.82
22572;BME280;11452;53.368;14.658;2023-05-01T14:27:14;100939.42;;;21.18;28.50
22572;BME280;11452;53.368;14.658;2023-05-01T14:32:20;100925.03;;;21.07;28.34
22572;BME280;11452;53.368;14.658;2023-05-01T14:37:26;100925.66;;;20.92;28.84
22572;BME280;11452;53.368;14.658;2023-05-01T14:42:34;100926.03;;;20.83;28.77
22572;BME280;11452;53.368;14.658;2023-05-01T14:47:40;100915.31;;;20.82;28.87
22572;BME280;11452;53.368;14.658;2023-05-01T14:52:58;100908.13;;;21.14;29.16
22572;BME280;11452;53.368;14.658;2023-05-01T14:58:00;100887.26;;;21.28;28.58
22572;BME280;11452;53.368;14.658;2023-05-01T15:03:07;100890.98;;;21.17;28.64
22572;BME280;11452;53.368;14.658;2023-05-01T15:08:12;100882.98;;;20.65;28.55
22572;BME280;11452;53.368;14.658;2023-05-01T15:13:18;100882.13;;;20.64;28.62
22572;BME280;11452;53.368;14.658;2023-05-01T15:18:25;100882.98;;;20.65;28.77
22572;BME280;11452;53.368;14.658;2023-05-01T15:23:31;100887.99;;;20.83;29.13
22572;BME280;11452;53.368;14.658;2023-05-01T15:28:37;100877.45;;;21.07;29.02
22572;BME280;11452;53.368;14.658;2023-05-01T15:33:44;100874.55;;;20.82;28.75
22572;BME280;11452;53.368;14.658;2023-05-01T15:38:50;100872.17;;;20.92;29.01
22572;BME280;11452;53.368;14.658;2023-05-01T15:43:55;100866.23;;;21.06;28.87
22572;BME280;11452;53.368;14.658;2023-05-01T15:49:01;100861.70;;;21.11;28.96
22572;BME280;11452;53.368;14.658;2023-05-01T15:54:06;100853.06;;;21.57;29.42
22572;BME280;11452;53.368;14.658;2023-05-01T15:59:12;100849.88;;;21.79;29.50
22572;BME280;11452;53.368;14.658;2023-05-01T16:04:18;100835.59;;;22.38;29.05
22572;BME280;11452;53.368;14.658;2023-05-01T16:09:28;100846.01;;;22.73;27.55
22572;BME280;11452;53.368;14.658;2023-05-01T16:14:38;100836.44;;;22.69;28.65
22572;BME280;11452;53.368;14.658;2023-05-01T16:19:45;100833.25;;;23.54;27.91
22572;BME280;11452;53.368;14.658;2023-05-01T16:24:51;100833.09;;;24.44;28.31
22572;BME280;11452;53.368;14.658;2023-05-01T16:29:56;100830.56;;;25.87;27.95
22572;BME280;11452;53.368;14.658;2023-05-01T16:35:03;100822.52;;;26.61;26.80
22572;BME280;11452;53.368;14.658;2023-05-01T16:40:16;100828.14;;;26.78;26.42
22572;BME280;11452;53.368;14.658;2023-05-01T16:45:22;100825.07;;;26.62;25.02
22572;BME280;11452;53.368;14.658;2023-05-01T16:50:30;100823.63;;;26.70;24.79
22572;BME280;11452;53.368;14.658;2023-05-01T16:55:37;100825.76;;;26.31;23.83
22572;BME280;11452;53.368;14.658;2023-05-01T17:00:44;100823.84;;;25.71;23.64
22572;BME280;11452;53.368;14.658;2023-05-01T17:05:50;100821.30;;;25.38;23.74
22572;BME280;11452;53.368;14.658;2023-05-01T17:10:55;100821.78;;;24.56;22.81
22572;BME280;11452;53.368;14.658;2023-05-01T17:16:01;100820.30;;;23.72;23.10
22572;BME280;11452;53.368;14.658;2023-05-01T17:21:09;100821.52;;;23.15;23.14
22572;BME280;11452;53.368;14.658;2023-05-01T17:26:15;100822.44;;;22.64;23.74
22572;BME280;11452;53.368;14.658;2023-05-01T17:31:20;100822.72;;;22.27;24.02
22572;BME280;11452;53.368;14.658;2023-05-01T17:36:26;100813.63;;;21.96;24.36
22572;BME280;11452;53.368;14.658;2023-05-01T17:41:32;100804.02;;;21.66;24.62
22572;BME280;11452;53.368;14.658;2023-05-01T17:46:38;100802.57;;;21.40;24.98
22572;BME280;11452;53.368;14.658;2023-05-01T17:51:46;100804.82;;;21.14;25.32
22572;BME280;11452;53.368;14.658;2023-05-01T18:02:23;100800.03;;;20.57;26.44
22572;BME280;11452;53.368;14.658;2023-05-01T18:07:32;100792.87;;;20.23;26.91
22572;BME280;11452;53.368;14.658;2023-05-01T18:18:21;100781.30;;;19.49;28.13
22572;BME280;11452;53.368;14.658;2023-05-01T18:23:34;100786.55;;;19.12;28.92
22572;BME280;11452;53.368;14.658;2023-05-01T18:28:41;100783.61;;;18.75;29.61
22572;BME280;11452;53.368;14.658;2023-05-01T18:33:48;100785.06;;;18.33;30.23
22572;BME280;11452;53.368;14.658;2023-05-01T18:38:53;100783.27;;;18.08;30.76
22572;BME280;11452;53.368;14.658;2023-05-01T18:44:23;100787.41;;;17.76;31.28
22572;BME280;11452;53.368;14.658;2023-05-01T18:55:07;100781.48;;;17.18;32.62
22572;BME280;11452;53.368;14.658;2023-05-01T19:00:15;100776.28;;;16.88;33.45
22572;BME280;11452;53.368;14.658;2023-05-01T19:10:37;100774.48;;;16.67;34.57
22572;BME280;11452;53.368;14.658;2023-05-01T19:15:42;100764.42;;;16.69;34.98
22572;BME280;11452;53.368;14.658;2023-05-01T19:20:48;100766.88;;;16.66;35.31
22572;BME280;11452;53.368;14.658;2023-05-01T19:25:55;100762.66;;;16.56;35.76
22572;BME280;11452;53.368;14.658;2023-05-01T19:31:00;100763.42;;;16.47;36.14
22572;BME280;11452;53.368;14.658;2023-05-01T19:36:08;100756.53;;;16.38;36.53
22572;BME280;11452;53.368;14.658;2023-05-01T19:41:14;100767.20;;;16.39;37.08
22572;BME280;11452;53.368;14.658;2023-05-01T19:46:19;100774.41;;;16.00;37.31
22572;BME280;11452;53.368;14.658;2023-05-01T19:51:26;100769.83;;;15.72;38.33
22572;BME280;11452;53.368;14.658;2023-05-01T19:56:32;100768.03;;;15.54;38.66
22572;BME280;11452;53.368;14.658;2023-05-01T20:01:59;100768.08;;;15.42;39.33
22572;BME280;11452;53.368;14.658;2023-05-01T20:07:05;100768.50;;;15.24;39.84
22572;BME280;11452;53.368;14.658;2023-05-01T20:12:11;100756.41;;;15.01;40.38
22572;BME280;11452;53.368;14.658;2023-05-01T20:17:17;100757.14;;;14.84;40.94
22572;BME280;11452;53.368;14.658;2023-05-01T20:22:23;100753.16;;;14.90;41.54
22572;BME280;11452;53.368;14.658;2023-05-01T20:27:28;100753.68;;;14.95;41.67
22572;BME280;11452;53.368;14.658;2023-05-01T20:32:34;100746.51;;;15.07;42.12
22572;BME280;11452;53.368;14.658;2023-05-01T20:37:41;100749.53;;;15.20;42.08
22572;BME280;11452;53.368;14.658;2023-05-01T20:43:07;100747.10;;;15.29;42.52
22572;BME280;11452;53.368;14.658;2023-05-01T20:48:12;100741.02;;;15.08;42.60
22572;BME280;11452;53.368;14.658;2023-05-01T20:53:21;100741.38;;;14.85;43.24
22572;BME280;11452;53.368;14.658;2023-05-01T20:58:26;100742.17;;;14.75;43.52
22572;BME280;11452;53.368;14.658;2023-05-01T21:03:32;100747.72;;;14.61;43.79
22572;BME280;11452;53.368;14.658;2023-05-01T21:08:38;100743.52;;;14.57;44.20
22572;BME280;11452;53.368;14.658;2023-05-01T21:13:43;100743.90;;;14.58;44.63
22572;BME280;11452;53.368;14.658;2023-05-01T21:18:49;100746.92;;;14.53;45.25
22572;BME280;11452;53.368;14.658;2023-05-01T21:24:29;100741.16;;;14.52;45.13
22572;BME280;11452;53.368;14.658;2023-05-01T21:29:38;100737.77;;;14.55;45.21
22572;BME280;11452;53.368;14.658;2023-05-01T21:40:39;100738.14;;;14.57;45.65
22572;BME280;11452;53.368;14.658;2023-05-01T21:45:49;100735.39;;;14.45;45.91
22572;BME280;11452;53.368;14.658;2023-05-01T21:50:56;100738.08;;;14.45;46.09
22572;BME280;11452;53.368;14.658;2023-05-01T21:56:02;100735.89;;;14.50;45.95
22572;BME280;11452;53.368;14.658;2023-05-01T22:01:10;100738.80;;;14.47;46.09
22572;BME280;11452;53.368;14.658;2023-05-01T22:06:18;100733.41;;;14.42;46.37
22572;BME280;11452;53.368;14.658;2023-05-01T22:11:23;100725.23;;;14.43;46.38
22572;BME280;11452;53.368;14.658;2023-05-01T22:16:29;100727.34;;;14.38;46.72
22572;BME280;11452;53.368;14.658;2023-05-01T22:21:34;100720.73;;;14.37;46.88
22572;BME280;11452;53.368;14.658;2023-05-01T22:26:40;100725.09;;;14.32;47.05
22572;BME280;11452;53.368;14.658;2023-05-01T22:31:46;100724.81;;;14.30;47.19
22572;BME280;11452;53.368;14.658;2023-05-01T22:36:52;100725.82;;;14.29;47.51
22572;BME280;11452;53.368;14.658;2023-05-01T22:41:58;100729.58;;;14.26;47.48
22572;BME280;11452;53.368;14.658;2023-05-01T22:47:03;100734.48;;;14.27;47.59
22572;BME280;11452;53.368;14.658;2023-05-01T22:52:10;100725.66;;;14.25;47.64
22572;BME280;11452;53.368;14.658;2023-05-01T22:57:15;100728.45;;;14.23;47.72
22572;BME280;11452;53.368;14.658;2023-05-01T23:02:21;100723.08;;;14.23;47.84
22572;BME280;11452;53.368;14.658;2023-05-01T23:07:27;100727.64;;;14.15;47.98
22572;BME280;11452;53.368;14.658;2023-05-01T23:12:32;100730.17;;;14.11;48.18
22572;BME280;11452;53.368;14.658;2023-05-01T23:17:39;100729.64;;;14.19;48.04
22572;BME280;11452;53.368;14.658;2023-05-01T23:22:46;100726.84;;;14.20;47.94
22572;BME280;11452;53.368;14.658;2023-05-01T23:27:54;100730.09;;;14.31;47.63
22572;BME280;11452;53.368;14.658;2023-05-01T23:33:01;100721.00;;;14.39;47.23
22572;BME280;11452;53.368;14.658;2023-05-01T23:38:10;100708.03;;;14.51;46.72
22572;BME280;11452;53.368;14.658;2023-05-01T23:43:18;100695.86;;;14.59;46.36
22572;BME280;11452;53.368;14.658;2023-05-01T23:48:24;100706.02;;;14.61;46.19
22572;BME280;11452;53.368;14.658;2023-05-01T23:53:30;100699.19;;;14.62;45.94
22572;BME280;11452;53.368;14.658;2023-05-01T23:58:35;100702.63;;;14.64;45.82
